createdAt,value
2018-05-02T00:00:07.750Z,5.75
2018-05-02T00:01:07.735Z,5.82
2018-05-02T00:02:07.712Z,5.78
2018-05-02T00:03:07.689Z,5.83
2018-05-02T00:04:07.672Z,5.78
2018-05-02T00:05:07.650Z,5.78
2018-05-02T00:06:07.637Z,5.78
2018-05-02T00:07:07.608Z,5.75
2018-05-02T00:08:07.589Z,5.75
2018-05-02T00:09:07.571Z,5.74
2018-05-02T00:10:07.547Z,5.65
2018-05-02T00:11:07.536Z,5.78
2018-05-02T00:12:07.505Z,5.75
2018-05-02T00:13:07.486Z,5.76
2018-05-02T00:14:07.468Z,5.81
2018-05-02T00:15:07.445Z,5.79
2018-05-02T00:16:07.430Z,5.85
2018-05-02T00:17:07.411Z,5.86
2018-05-02T00:18:07.413Z,5.94
2018-05-02T00:19:07.363Z,5.82
2018-05-02T00:20:07.344Z,5.83
2018-05-02T00:21:07.325Z,5.89
2018-05-02T00:22:07.308Z,6.00
2018-05-02T00:23:07.287Z,6.03
2018-05-02T00:24:07.263Z,6.01
2018-05-02T00:25:07.243Z,5.99
2018-05-02T00:26:07.227Z,6.01
2018-05-02T00:27:07.201Z,6.04
2018-05-02T00:28:07.182Z,6.03
2018-05-02T00:29:07.161Z,5.93
2018-05-02T00:30:07.140Z,5.86
2018-05-02T00:31:07.119Z,5.86
2018-05-02T00:32:07.099Z,5.94
2018-05-02T00:33:07.080Z,5.85
2018-05-02T00:34:07.216Z,5.82
2018-05-02T00:35:07.038Z,5.81
2018-05-02T00:36:07.028Z,5.78
2018-05-02T00:37:07.001Z,5.79
2018-05-02T00:38:06.981Z,5.71
2018-05-02T00:39:06.958Z,5.83
2018-05-02T00:40:06.935Z,5.79
2018-05-02T00:41:06.916Z,5.71
2018-05-02T00:42:06.895Z,5.68
2018-05-02T00:43:06.881Z,5.75
2018-05-02T00:44:06.854Z,5.58
2018-05-02T00:45:06.835Z,5.71
2018-05-02T00:46:06.813Z,5.67
2018-05-02T00:47:06.792Z,5.58
2018-05-02T00:48:06.775Z,5.61
2018-05-02T00:49:06.755Z,5.61
2018-05-02T00:50:06.738Z,5.60
2018-05-02T00:51:06.713Z,5.61
2018-05-02T00:52:06.691Z,5.54
2018-05-02T00:53:06.672Z,5.60
2018-05-02T00:54:06.650Z,5.56
2018-05-02T00:55:06.631Z,5.58
2018-05-02T00:56:06.612Z,5.75
2018-05-02T00:57:06.590Z,5.63
2018-05-02T00:58:06.567Z,5.61
2018-05-02T00:59:06.548Z,5.63
2018-05-02T01:00:06.528Z,5.61
2018-05-02T01:01:06.512Z,5.58
2018-05-02T01:02:06.490Z,5.56
2018-05-02T01:03:06.465Z,5.57
2018-05-02T01:04:06.448Z,5.53
2018-05-02T01:05:06.426Z,5.38
2018-05-02T01:06:06.403Z,5.31
2018-05-02T01:07:06.385Z,5.43
2018-05-02T01:08:06.362Z,5.38
2018-05-02T01:09:06.344Z,5.24
2018-05-02T01:10:06.322Z,5.25
2018-05-02T01:11:06.310Z,5.13
2018-05-02T01:12:06.281Z,5.10
2018-05-02T01:13:06.260Z,5.12
2018-05-02T01:14:06.237Z,5.03
2018-05-02T01:15:06.223Z,5.06
2018-05-02T01:16:06.199Z,4.97
2018-05-02T01:17:06.180Z,5.06
2018-05-02T01:18:06.159Z,4.99
2018-05-02T01:19:06.136Z,5.00
2018-05-02T01:20:06.125Z,4.99
2018-05-02T01:21:06.096Z,4.84
2018-05-02T01:22:06.074Z,4.91
2018-05-02T01:23:06.053Z,4.88
2018-05-02T01:24:06.037Z,5.03
2018-05-02T01:25:06.013Z,4.96
2018-05-02T01:26:05.991Z,4.96
2018-05-02T01:27:05.970Z,4.99
2018-05-02T01:28:05.951Z,5.03
2018-05-02T01:29:05.930Z,5.02
2018-05-02T01:30:05.917Z,5.02
2018-05-02T01:31:05.892Z,5.03
2018-05-02T01:32:05.866Z,5.02
2018-05-02T01:33:05.850Z,5.03
2018-05-02T01:34:05.825Z,5.00
2018-05-02T01:35:05.806Z,4.92
2018-05-02T01:36:05.784Z,5.02
2018-05-02T01:37:05.763Z,5.00
2018-05-02T01:38:05.746Z,4.99
2018-05-02T01:39:05.720Z,4.99
2018-05-02T01:40:05.702Z,4.96
2018-05-02T01:41:05.680Z,4.89
2018-05-02T01:42:05.659Z,4.91
2018-05-02T01:43:05.638Z,4.97
2018-05-02T01:44:05.621Z,4.82
2018-05-02T01:45:05.599Z,5.02
2018-05-02T01:46:05.575Z,4.99
2018-05-02T01:47:05.556Z,5.03
2018-05-02T01:48:05.538Z,5.03
2018-05-02T01:49:05.513Z,5.00
2018-05-02T01:50:05.491Z,4.86
2018-05-02T01:51:05.475Z,4.82
2018-05-02T01:52:05.451Z,4.80
2018-05-02T01:53:05.434Z,4.75
2018-05-02T01:54:05.408Z,4.78
2018-05-02T01:55:05.388Z,4.70
2018-05-02T01:56:05.367Z,4.63
2018-05-02T01:57:05.348Z,4.66
2018-05-02T01:58:05.324Z,4.63
2018-05-02T01:59:05.305Z,4.65
2018-05-02T02:00:05.286Z,4.69
2018-05-02T02:01:05.263Z,4.67
2018-05-02T02:02:05.242Z,4.66
2018-05-02T02:03:05.223Z,4.69
2018-05-02T02:04:05.207Z,4.67
2018-05-02T02:05:05.181Z,4.66
2018-05-02T02:06:05.159Z,4.63
2018-05-02T02:07:05.139Z,4.65
2018-05-02T02:08:05.118Z,4.62
2018-05-02T02:09:05.099Z,4.65
2018-05-02T02:10:05.075Z,4.75
2018-05-02T02:11:05.054Z,4.63
2018-05-02T02:12:05.035Z,4.65
2018-05-02T02:13:05.012Z,4.77
2018-05-02T02:14:04.994Z,4.73
2018-05-02T02:15:04.970Z,4.84
2018-05-02T02:16:04.949Z,4.82
2018-05-02T02:17:04.930Z,4.88
2018-05-02T02:18:04.910Z,4.88
2018-05-02T02:19:04.886Z,4.92
2018-05-02T02:20:04.870Z,5.02
2018-05-02T02:21:04.843Z,5.04
2018-05-02T02:22:04.822Z,4.99
2018-05-02T02:23:04.805Z,5.04
2018-05-02T02:24:04.781Z,5.03
2018-05-02T02:25:04.761Z,5.03
2018-05-02T02:26:04.741Z,5.02
2018-05-02T02:27:04.719Z,5.03
2018-05-02T02:28:04.699Z,4.88
2018-05-02T02:29:04.678Z,4.91
2018-05-02T02:30:04.655Z,4.85
2018-05-02T02:31:04.635Z,4.78
2018-05-02T02:32:04.614Z,4.72
2018-05-02T02:33:04.595Z,4.77
2018-05-02T02:34:04.663Z,4.72
2018-05-02T02:35:04.550Z,4.78
2018-05-02T02:36:04.533Z,4.67
2018-05-02T02:37:04.512Z,4.70
2018-05-02T02:38:04.489Z,4.63
2018-05-02T02:39:04.472Z,4.72
2018-05-02T02:40:04.453Z,4.58
2018-05-02T02:41:04.426Z,4.63
2018-05-02T02:42:04.405Z,4.47
2018-05-02T02:43:04.387Z,4.45
2018-05-02T02:44:04.367Z,4.51
2018-05-02T02:45:04.342Z,4.45
2018-05-02T02:46:04.322Z,4.65
2018-05-02T02:47:04.308Z,4.51
2018-05-02T02:48:04.281Z,4.65
2018-05-02T02:49:04.259Z,4.51
2018-05-02T02:50:04.237Z,4.50
2018-05-02T02:51:04.219Z,4.45
2018-05-02T02:52:04.196Z,4.42
2018-05-02T02:53:04.174Z,4.47
2018-05-02T02:54:04.153Z,4.42
2018-05-02T02:55:04.131Z,4.36
2018-05-02T02:56:04.111Z,4.29
2018-05-02T02:57:04.090Z,4.20
2018-05-02T02:58:04.069Z,4.23
2018-05-02T02:59:04.051Z,4.09
2018-05-02T03:00:04.027Z,4.06
2018-05-02T03:01:04.007Z,4.05
2018-05-02T03:02:03.983Z,4.02
2018-05-02T03:03:03.963Z,4.06
2018-05-02T03:04:03.943Z,4.06
2018-05-02T03:05:03.920Z,4.08
2018-05-02T03:06:03.909Z,4.11
2018-05-02T03:07:03.878Z,4.05
2018-05-02T03:08:03.857Z,4.04
2018-05-02T03:09:03.837Z,4.06
2018-05-02T03:10:03.821Z,4.04
2018-05-02T03:11:03.801Z,4.00
2018-05-02T03:12:03.774Z,3.93
2018-05-02T03:13:03.758Z,3.98
2018-05-02T03:14:03.730Z,3.88
2018-05-02T03:15:03.710Z,3.91
2018-05-02T03:16:03.687Z,3.79
2018-05-02T03:17:03.673Z,3.79
2018-05-02T03:18:03.650Z,3.76
2018-05-02T03:19:03.624Z,3.93
2018-05-02T03:20:03.609Z,3.83
2018-05-02T03:21:03.583Z,3.83
2018-05-02T03:22:03.562Z,3.83
2018-05-02T03:23:03.540Z,3.91
2018-05-02T03:24:03.519Z,3.88
2018-05-02T03:25:03.504Z,3.94
2018-05-02T03:26:03.479Z,3.96
2018-05-02T03:27:03.519Z,4.02
2018-05-02T03:28:03.432Z,4.00
2018-05-02T03:29:03.409Z,4.05
2018-05-02T03:30:03.387Z,4.00
2018-05-02T03:31:03.365Z,3.97
2018-05-02T03:32:03.349Z,3.90
2018-05-02T03:33:03.326Z,4.00
2018-05-02T03:34:03.300Z,3.88
2018-05-02T03:35:03.282Z,3.94
2018-05-02T03:36:03.257Z,3.88
2018-05-02T03:37:03.236Z,4.02
2018-05-02T03:38:03.213Z,4.06
2018-05-02T03:39:03.194Z,4.05
2018-05-02T03:40:03.173Z,4.06
2018-05-02T03:41:03.153Z,4.05
2018-05-02T03:42:03.131Z,4.05
2018-05-02T03:43:03.107Z,4.14
2018-05-02T03:44:03.089Z,4.14
2018-05-02T03:45:03.068Z,4.30
2018-05-02T03:46:03.042Z,4.33
2018-05-02T03:47:03.023Z,4.32
2018-05-02T03:48:03.002Z,4.26
2018-05-02T03:49:02.984Z,4.16
2018-05-02T03:50:02.960Z,4.20
2018-05-02T03:51:02.938Z,4.14
2018-05-02T03:52:02.915Z,4.26
2018-05-02T03:53:02.954Z,4.16
2018-05-02T03:54:02.872Z,4.30
2018-05-02T03:55:02.852Z,4.24
2018-05-02T03:56:02.882Z,4.32
2018-05-02T03:57:02.809Z,4.30
2018-05-02T03:58:02.788Z,4.34
2018-05-02T03:59:02.770Z,4.32
2018-05-02T04:00:02.744Z,4.34
2018-05-02T04:01:02.722Z,4.29
2018-05-02T04:02:02.701Z,4.29
2018-05-02T04:03:02.678Z,4.30
2018-05-02T04:04:02.660Z,4.37
2018-05-02T04:05:02.642Z,4.44
2018-05-02T04:06:02.617Z,4.50
2018-05-02T04:07:02.593Z,4.60
2018-05-02T04:08:02.573Z,4.59
2018-05-02T04:09:02.553Z,4.63
2018-05-02T04:10:02.530Z,4.62
2018-05-02T04:11:02.512Z,4.58
2018-05-02T04:12:02.488Z,4.52
2018-05-02T04:13:02.471Z,4.55
2018-05-02T04:14:02.448Z,4.45
2018-05-02T04:15:31.145Z,4.51
2018-05-02T04:16:31.118Z,4.48
2018-05-02T04:17:31.098Z,4.60
2018-05-02T04:18:31.077Z,4.55
2018-05-02T04:19:31.053Z,4.62
2018-05-02T04:20:31.033Z,4.59
2018-05-02T04:21:31.011Z,4.54
2018-05-02T04:22:30.995Z,4.65
2018-05-02T04:23:30.969Z,4.67
2018-05-02T04:24:30.954Z,4.70
2018-05-02T04:25:30.927Z,4.80
2018-05-02T04:26:30.907Z,4.73
2018-05-02T04:27:30.887Z,4.80
2018-05-02T04:28:30.866Z,4.72
2018-05-02T04:29:30.841Z,4.77
2018-05-02T04:30:30.820Z,4.77
2018-05-02T04:31:30.798Z,4.78
2018-05-02T04:32:30.779Z,4.84
2018-05-02T04:33:30.759Z,4.80
2018-05-02T04:34:30.747Z,4.84
2018-05-02T04:35:30.714Z,4.89
2018-05-02T04:36:30.697Z,4.86
2018-05-02T04:37:30.675Z,4.88
2018-05-02T04:38:30.653Z,4.91
2018-05-02T04:39:30.629Z,4.88
2018-05-02T04:40:30.611Z,4.96
2018-05-02T04:41:30.590Z,5.02
2018-05-02T04:42:30.566Z,4.99
2018-05-02T04:43:30.547Z,5.02
2018-05-02T04:44:30.531Z,5.06
2018-05-02T04:45:30.504Z,5.06
2018-05-02T04:46:30.482Z,5.03
2018-05-02T04:47:30.463Z,5.06
2018-05-02T04:48:30.441Z,5.04
2018-05-02T04:49:30.422Z,5.06
2018-05-02T04:50:30.405Z,5.10
2018-05-02T04:51:30.375Z,5.06
2018-05-02T04:52:30.353Z,5.12
2018-05-02T04:53:30.337Z,5.17
2018-05-02T04:54:30.313Z,5.15
2018-05-02T04:55:30.296Z,5.18
2018-05-02T04:56:30.272Z,5.25
2018-05-02T04:57:30.251Z,5.25
2018-05-02T04:58:30.227Z,5.35
2018-05-02T04:59:30.244Z,5.36
2018-05-02T05:00:30.185Z,5.39
2018-05-02T05:01:30.165Z,5.42
2018-05-02T05:02:30.145Z,5.43
2018-05-02T05:03:30.121Z,5.51
2018-05-02T05:04:30.099Z,5.54
2018-05-02T05:05:30.079Z,5.60
2018-05-02T05:06:30.064Z,5.57
2018-05-02T05:07:30.041Z,5.53
2018-05-02T05:08:30.017Z,5.63
2018-05-02T05:09:29.996Z,5.61
2018-05-02T05:10:29.977Z,5.65
2018-05-02T05:11:29.952Z,5.65
2018-05-02T05:12:29.932Z,5.65
2018-05-02T05:13:29.912Z,5.68
2018-05-02T05:14:29.915Z,5.82
2018-05-02T05:15:29.867Z,5.81
2018-05-02T05:16:29.850Z,5.79
2018-05-02T05:17:29.827Z,5.81
2018-05-02T05:18:29.815Z,5.90
2018-05-02T05:19:29.786Z,5.90
2018-05-02T05:20:29.768Z,5.94
2018-05-02T05:21:29.745Z,6.01
2018-05-02T05:22:29.723Z,6.12
2018-05-02T05:23:29.701Z,6.19
2018-05-02T05:24:29.681Z,6.31
2018-05-02T05:25:29.662Z,6.40
2018-05-02T05:26:29.640Z,6.41
2018-05-02T05:27:29.620Z,6.55
2018-05-02T05:28:29.598Z,6.61
2018-05-02T05:29:29.586Z,6.74
2018-05-02T05:30:29.562Z,6.73
2018-05-02T05:31:29.538Z,6.92
2018-05-02T05:32:29.516Z,7.12
2018-05-02T05:33:29.499Z,7.13
2018-05-02T05:34:29.476Z,7.20
2018-05-02T05:35:29.454Z,7.40
2018-05-02T05:36:29.436Z,7.48
2018-05-02T05:37:29.414Z,7.61
2018-05-02T05:38:29.394Z,7.74
2018-05-02T05:39:29.373Z,7.85
2018-05-02T05:40:29.354Z,8.04
2018-05-02T05:41:29.333Z,8.16
2018-05-02T05:42:29.316Z,8.20
2018-05-02T05:43:29.294Z,8.29
2018-05-02T05:44:29.277Z,8.25
2018-05-02T05:45:29.253Z,8.37
2018-05-02T05:46:29.235Z,8.38
2018-05-02T05:47:29.262Z,8.53
2018-05-02T05:48:29.192Z,8.56
2018-05-02T05:49:29.185Z,8.66
2018-05-02T05:50:29.156Z,8.74
2018-05-02T05:51:29.133Z,8.73
2018-05-02T05:52:29.118Z,8.87
2018-05-02T05:53:29.093Z,8.81
2018-05-02T05:54:29.195Z,8.91
2018-05-02T05:55:29.053Z,8.95
2018-05-02T05:56:29.034Z,8.96
2018-05-02T05:57:29.023Z,9.13
2018-05-02T05:58:28.995Z,9.17
2018-05-02T05:59:28.978Z,9.24
2018-05-02T06:00:28.959Z,9.26
2018-05-02T06:01:28.939Z,9.23
2018-05-02T06:02:28.923Z,9.40
2018-05-02T06:03:28.901Z,9.38
2018-05-02T06:04:28.884Z,9.46
2018-05-02T06:05:28.861Z,9.57
2018-05-02T06:06:28.845Z,9.58
2018-05-02T06:07:28.825Z,9.74
2018-05-02T06:08:28.807Z,9.78
2018-05-02T06:09:28.788Z,9.84
2018-05-02T06:10:28.769Z,9.89
2018-05-02T06:11:28.750Z,9.97
2018-05-02T06:12:28.731Z,10.02
2018-05-02T06:13:28.711Z,10.02
2018-05-02T06:14:28.693Z,9.99
2018-05-02T06:15:28.680Z,10.12
2018-05-02T06:16:28.659Z,10.17
2018-05-02T06:17:28.644Z,10.22
2018-05-02T06:18:28.621Z,10.27
2018-05-02T06:19:28.600Z,10.29
2018-05-02T06:20:28.583Z,10.34
2018-05-02T06:21:28.564Z,10.42
2018-05-02T06:22:28.546Z,10.45
2018-05-02T06:23:28.533Z,10.52
2018-05-02T06:24:28.513Z,10.61
2018-05-02T06:25:28.492Z,10.71
2018-05-02T06:26:28.476Z,10.82
2018-05-02T06:27:28.466Z,10.81
2018-05-02T06:28:28.438Z,10.91
2018-05-02T06:29:28.424Z,10.91
2018-05-02T06:30:28.402Z,11.04
2018-05-02T06:31:28.386Z,11.04
2018-05-02T06:32:28.370Z,11.11
2018-05-02T06:33:28.352Z,11.18
2018-05-02T06:34:28.336Z,11.24
2018-05-02T06:35:28.319Z,11.28
2018-05-02T06:36:28.300Z,11.32
2018-05-02T06:37:28.281Z,11.36
2018-05-02T06:38:28.266Z,11.44
2018-05-02T06:39:28.246Z,11.51
2018-05-02T06:40:28.230Z,11.62
2018-05-02T06:41:28.219Z,11.65
2018-05-02T06:42:28.195Z,11.78
2018-05-02T06:43:28.194Z,11.90
2018-05-02T06:44:28.159Z,12.04
2018-05-02T06:45:28.145Z,12.07
2018-05-02T06:46:28.131Z,12.23
2018-05-02T06:47:28.111Z,12.35
2018-05-02T06:48:28.100Z,12.46
2018-05-02T06:49:28.080Z,12.53
2018-05-02T06:50:28.065Z,12.60
2018-05-02T06:51:28.045Z,12.68
2018-05-02T06:52:28.029Z,12.70
2018-05-02T06:53:28.009Z,12.68
2018-05-02T06:54:27.993Z,12.72
2018-05-02T06:55:27.979Z,12.95
2018-05-02T06:56:27.963Z,12.92
2018-05-02T06:57:27.946Z,13.08
2018-05-02T06:58:27.926Z,13.15
2018-05-02T06:59:27.916Z,13.23
2018-05-02T07:00:27.897Z,13.29
2018-05-02T07:01:27.880Z,13.39
2018-05-02T07:02:27.865Z,13.64
2018-05-02T07:03:27.849Z,13.73
2018-05-02T07:04:27.835Z,13.77
2018-05-02T07:05:27.821Z,13.92
2018-05-02T07:06:27.802Z,13.99
2018-05-02T07:07:27.788Z,14.17
2018-05-02T07:08:27.771Z,14.40
2018-05-02T07:09:27.756Z,14.39
2018-05-02T07:10:27.742Z,14.62
2018-05-02T07:11:27.723Z,14.58
2018-05-02T07:12:27.709Z,14.65
2018-05-02T07:13:27.782Z,14.83
2018-05-02T07:14:27.681Z,14.92
2018-05-02T07:15:27.664Z,15.13
2018-05-02T07:16:27.651Z,15.14
2018-05-02T07:17:27.634Z,15.36
2018-05-02T07:18:27.621Z,15.38
2018-05-02T07:19:27.609Z,15.46
2018-05-02T07:20:27.592Z,15.71
2018-05-02T07:21:27.581Z,15.97
2018-05-02T07:22:27.566Z,16.14
2018-05-02T07:23:27.550Z,16.48
2018-05-02T07:24:27.535Z,16.52
2018-05-02T07:25:27.526Z,16.63
2018-05-02T07:26:27.511Z,16.66
2018-05-02T07:27:27.499Z,16.64
2018-05-02T07:28:27.483Z,16.68
2018-05-02T07:29:27.479Z,16.79
2018-05-02T07:30:27.462Z,16.85
2018-05-02T07:31:27.446Z,17.08
2018-05-02T07:32:27.484Z,17.21
2018-05-02T07:33:27.420Z,17.28
2018-05-02T07:34:27.410Z,17.36
2018-05-02T07:35:27.397Z,17.07
2018-05-02T07:36:27.384Z,17.14
2018-05-02T07:37:27.380Z,17.12
2018-05-02T07:38:27.361Z,17.26
2018-05-02T07:39:27.354Z,17.40
2018-05-02T07:40:27.340Z,17.54
2018-05-02T07:41:27.329Z,17.62
2018-05-02T07:42:27.315Z,17.66
2018-05-02T07:43:27.304Z,17.78
2018-05-02T07:44:27.296Z,17.52
2018-05-02T07:45:27.287Z,17.66
2018-05-02T07:46:27.281Z,17.97
2018-05-02T07:47:27.263Z,18.05
2018-05-02T07:48:27.253Z,18.07
2018-05-02T07:49:27.243Z,18.26
2018-05-02T07:50:27.233Z,18.41
2018-05-02T07:51:27.223Z,18.14
2018-05-02T07:52:27.214Z,18.51
2018-05-02T07:53:27.215Z,18.81
2018-05-02T07:54:27.201Z,18.84
2018-05-02T07:55:27.240Z,18.90
2018-05-02T07:56:27.184Z,19.07
2018-05-02T07:57:27.166Z,19.21
2018-05-02T07:58:27.160Z,19.31
2018-05-02T07:59:27.146Z,19.43
2018-05-02T08:00:27.139Z,19.62
2018-05-02T08:01:27.129Z,19.99
2018-05-02T08:02:27.123Z,20.32
2018-05-02T08:03:27.113Z,20.35
2018-05-02T08:04:27.105Z,20.58
2018-05-02T08:05:27.098Z,21.06
2018-05-02T08:06:27.091Z,21.47
2018-05-02T08:07:27.089Z,21.43
2018-05-02T08:08:27.088Z,21.44
2018-05-02T08:09:27.069Z,21.56
2018-05-02T08:10:27.063Z,21.58
2018-05-02T08:11:27.056Z,21.84
2018-05-02T08:12:27.048Z,21.52
2018-05-02T08:13:27.044Z,21.24
2018-05-02T08:14:27.039Z,21.12
2018-05-02T08:15:27.031Z,21.17
2018-05-02T08:16:27.126Z,20.98
2018-05-02T08:17:27.019Z,20.94
2018-05-02T08:18:27.016Z,20.91
2018-05-02T08:19:27.008Z,21.04
2018-05-02T08:20:27.005Z,21.17
2018-05-02T08:21:26.999Z,21.09
2018-05-02T08:22:26.995Z,20.94
2018-05-02T08:23:26.987Z,20.87
2018-05-02T08:24:26.982Z,20.70
2018-05-02T08:25:26.980Z,21.12
2018-05-02T08:26:26.971Z,21.29
2018-05-02T08:27:26.966Z,20.91
2018-05-02T08:28:26.965Z,20.85
2018-05-02T08:29:26.959Z,20.62
2018-05-02T08:30:26.953Z,20.87
2018-05-02T08:31:26.948Z,20.82
2018-05-02T08:32:26.954Z,20.99
2018-05-02T08:33:26.939Z,21.43
2018-05-02T08:34:26.935Z,21.49
2018-05-02T08:35:26.930Z,21.40
2018-05-02T08:36:26.925Z,21.68
2018-05-02T08:37:26.930Z,21.77
2018-05-02T08:38:26.918Z,21.61
2018-05-02T08:39:26.912Z,21.44
2018-05-02T08:40:26.920Z,21.38
2018-05-02T08:41:26.910Z,21.38
2018-05-02T08:42:26.901Z,21.38
2018-05-02T08:43:26.896Z,21.37
2018-05-02T08:44:26.895Z,21.31
2018-05-02T08:45:26.891Z,21.22
2018-05-02T08:46:26.888Z,20.84
2018-05-02T08:47:26.882Z,20.69
2018-05-02T08:48:26.877Z,20.38
2018-05-02T08:49:26.882Z,20.18
2018-05-02T08:50:26.869Z,20.10
2018-05-02T08:51:26.865Z,19.83
2018-05-02T08:52:26.861Z,19.55
2018-05-02T08:53:26.862Z,19.08
2018-05-02T08:54:26.854Z,18.90
2018-05-02T08:55:26.851Z,18.69
2018-05-02T08:56:26.840Z,18.35
2018-05-02T08:57:26.853Z,18.17
2018-05-02T08:58:26.834Z,18.05
2018-05-02T08:59:26.828Z,18.10
2018-05-02T09:00:26.816Z,18.08
2018-05-02T09:01:26.814Z,17.82
2018-05-02T09:02:26.817Z,17.84
2018-05-02T09:03:26.797Z,17.77
2018-05-02T09:04:26.795Z,17.78
2018-05-02T09:05:26.788Z,17.72
2018-05-02T09:06:26.778Z,17.72
2018-05-02T09:07:26.775Z,17.71
2018-05-02T09:08:26.769Z,17.44
2018-05-02T09:09:26.755Z,17.34
2018-05-02T09:10:26.748Z,17.33
2018-05-02T09:11:26.739Z,17.08
2018-05-02T09:12:26.759Z,17.19
2018-05-02T09:13:26.728Z,17.08
2018-05-02T09:14:26.715Z,17.07
2018-05-02T09:15:26.753Z,16.89
2018-05-02T09:16:26.699Z,16.78
2018-05-02T09:17:26.687Z,16.78
2018-05-02T09:18:26.681Z,16.53
2018-05-02T09:19:26.676Z,16.64
2018-05-02T09:20:26.662Z,16.53
2018-05-02T09:21:26.656Z,16.58
2018-05-02T09:22:26.647Z,16.49
2018-05-02T09:23:26.636Z,16.41
2018-05-02T09:24:26.624Z,16.43
2018-05-02T09:25:26.619Z,16.39
2018-05-02T09:26:26.605Z,16.38
2018-05-02T09:27:26.593Z,16.20
2018-05-02T09:28:26.580Z,16.33
2018-05-02T09:29:26.574Z,16.30
2018-05-02T09:30:26.565Z,16.42
2018-05-02T09:31:26.568Z,16.38
2018-05-02T09:32:26.544Z,16.34
2018-05-02T09:33:26.530Z,16.39
2018-05-02T09:34:26.519Z,16.34
2018-05-02T09:35:26.509Z,16.25
2018-05-02T09:36:26.495Z,16.25
2018-05-02T09:37:26.485Z,16.24
2018-05-02T09:38:26.475Z,16.25
2018-05-02T09:39:26.463Z,16.15
2018-05-02T09:40:26.452Z,16.20
2018-05-02T09:41:26.441Z,16.15
2018-05-02T09:42:26.430Z,16.09
2018-05-02T09:43:26.420Z,16.09
2018-05-02T09:44:26.407Z,16.07
2018-05-02T09:45:26.400Z,16.09
2018-05-02T09:46:26.388Z,15.96
2018-05-02T09:47:26.373Z,15.94
2018-05-02T09:48:26.360Z,15.90
2018-05-02T09:49:26.349Z,16.04
2018-05-02T09:50:26.339Z,15.97
2018-05-02T09:51:26.325Z,16.00
2018-05-02T09:52:26.315Z,16.07
2018-05-02T09:53:26.306Z,16.09
2018-05-02T09:54:26.294Z,16.21
2018-05-02T09:55:26.276Z,16.34
2018-05-02T09:56:26.275Z,16.39
2018-05-02T09:57:26.253Z,16.48
2018-05-02T09:58:26.242Z,16.38
2018-05-02T09:59:26.235Z,16.43
2018-05-02T10:00:26.218Z,16.43
2018-05-02T10:01:26.211Z,16.41
2018-05-02T10:02:26.199Z,16.41
2018-05-02T10:03:26.186Z,16.35
2018-05-02T10:04:26.190Z,16.28
2018-05-02T10:05:26.160Z,16.25
2018-05-02T10:06:26.148Z,16.09
2018-05-02T10:07:26.134Z,16.04
2018-05-02T10:08:26.125Z,16.09
2018-05-02T10:09:26.110Z,16.00
2018-05-02T10:10:26.099Z,16.01
2018-05-02T10:11:26.140Z,16.00
2018-05-02T10:12:26.097Z,16.04
2018-05-02T10:13:26.065Z,15.94
2018-05-02T10:14:26.049Z,16.09
2018-05-02T10:15:26.038Z,16.04
2018-05-02T10:16:26.037Z,15.93
2018-05-02T10:17:26.020Z,15.87
2018-05-02T10:18:26.104Z,15.90
2018-05-02T10:19:25.987Z,15.87
2018-05-02T10:20:25.978Z,15.82
2018-05-02T10:21:25.968Z,15.84
2018-05-02T10:22:26.001Z,15.96
2018-05-02T10:23:25.943Z,16.00
2018-05-02T10:24:25.933Z,15.92
2018-05-02T10:25:25.913Z,15.93
2018-05-02T10:26:25.902Z,16.01
2018-05-02T10:27:25.889Z,16.01
2018-05-02T10:28:25.880Z,15.97
2018-05-02T10:29:25.880Z,15.93
2018-05-02T10:30:25.861Z,15.90
2018-05-02T10:31:25.890Z,15.93
2018-05-02T10:32:25.827Z,15.94
2018-05-02T10:33:25.813Z,15.93
2018-05-02T10:34:25.804Z,15.96
2018-05-02T10:35:25.791Z,15.94
2018-05-02T10:36:25.776Z,15.90
2018-05-02T10:37:25.760Z,15.87
2018-05-02T10:38:25.752Z,15.87
2018-05-02T10:39:25.736Z,15.89
2018-05-02T10:40:25.724Z,15.82
2018-05-02T10:41:25.713Z,15.97
2018-05-02T10:42:25.698Z,15.92
2018-05-02T10:43:25.683Z,15.96
2018-05-02T10:44:25.673Z,15.89
2018-05-02T10:45:25.666Z,15.94
2018-05-02T10:46:25.652Z,16.02
2018-05-02T10:47:25.632Z,16.04
2018-05-02T10:48:25.629Z,16.07
2018-05-02T10:49:25.609Z,16.02
2018-05-02T10:50:25.670Z,15.93
2018-05-02T10:51:25.583Z,15.89
2018-05-02T10:52:25.567Z,15.93
2018-05-02T10:53:25.561Z,15.94
2018-05-02T10:54:25.545Z,15.93
2018-05-02T10:55:25.536Z,15.97
2018-05-02T10:56:25.530Z,15.92
2018-05-02T10:57:25.506Z,15.89
2018-05-02T10:58:25.498Z,15.82
2018-05-02T10:59:25.480Z,15.80
2018-05-02T11:00:25.466Z,15.78
2018-05-02T11:01:25.466Z,15.75
2018-05-02T11:02:25.444Z,15.76
2018-05-02T11:03:25.427Z,15.76
2018-05-02T11:04:25.419Z,15.68
2018-05-02T11:05:25.403Z,15.72
2018-05-02T11:06:25.393Z,15.68
2018-05-02T11:07:25.379Z,15.68
2018-05-02T11:08:25.386Z,15.64
2018-05-02T11:09:25.349Z,15.57
2018-05-02T11:10:25.338Z,15.57
2018-05-02T11:11:25.324Z,15.57
2018-05-02T11:12:25.309Z,15.59
2018-05-02T11:13:25.297Z,15.53
2018-05-02T11:14:25.327Z,15.60
2018-05-02T11:15:25.270Z,15.60
2018-05-02T11:16:25.265Z,15.59
2018-05-02T11:17:25.246Z,15.53
2018-05-02T11:18:25.240Z,15.56
2018-05-02T11:19:25.218Z,15.56
2018-05-02T11:20:25.205Z,15.54
2018-05-02T11:21:25.191Z,15.53
2018-05-02T11:22:25.181Z,15.57
2018-05-02T11:23:25.163Z,15.59
2018-05-02T11:24:25.150Z,15.60
2018-05-02T11:25:25.159Z,15.64
2018-05-02T11:26:25.127Z,15.64
2018-05-02T11:27:25.112Z,15.68
2018-05-02T11:28:25.192Z,15.69
2018-05-02T11:29:25.106Z,15.75
2018-05-02T11:30:25.073Z,15.68
2018-05-02T11:31:25.060Z,15.60
2018-05-02T11:32:25.045Z,15.56
2018-05-02T11:33:25.038Z,15.46
2018-05-02T11:34:25.019Z,15.49
2018-05-02T11:35:25.003Z,15.28
2018-05-02T11:36:24.992Z,15.27
2018-05-02T11:37:24.981Z,15.20
2018-05-02T11:38:24.970Z,15.23
2018-05-02T11:39:24.950Z,15.34
2018-05-02T11:40:24.940Z,15.28
2018-05-02T11:41:24.924Z,15.29
2018-05-02T11:42:24.910Z,15.27
2018-05-02T11:43:24.896Z,15.25
2018-05-02T11:44:24.884Z,15.21
2018-05-02T11:45:24.872Z,15.25
2018-05-02T11:46:24.857Z,15.20
2018-05-02T11:47:24.840Z,15.09
2018-05-02T11:48:24.831Z,15.06
2018-05-02T11:49:24.821Z,15.02
2018-05-02T11:50:24.802Z,14.94
2018-05-02T11:51:24.787Z,14.88
2018-05-02T11:52:24.774Z,14.86
2018-05-02T11:53:24.762Z,14.81
2018-05-02T11:54:24.752Z,14.70
2018-05-02T11:55:24.731Z,14.78
2018-05-02T11:56:24.721Z,14.80
2018-05-02T11:57:24.706Z,14.72
2018-05-02T11:58:24.699Z,14.80
2018-05-02T11:59:24.683Z,14.80
2018-05-02T12:00:24.663Z,14.81
2018-05-02T12:01:24.649Z,14.84
2018-05-02T12:02:24.635Z,14.83
2018-05-02T12:03:24.703Z,14.84
2018-05-02T12:04:24.613Z,14.88
2018-05-02T12:05:24.593Z,14.84
2018-05-02T12:06:24.577Z,14.77
2018-05-02T12:07:24.564Z,14.83
2018-05-02T12:08:24.549Z,14.72
2018-05-02T12:09:24.536Z,14.70
2018-05-02T12:10:24.611Z,14.65
2018-05-02T12:11:24.510Z,14.69
2018-05-02T12:12:24.502Z,14.72
2018-05-02T12:13:24.479Z,14.69
2018-05-02T12:14:24.465Z,14.72
2018-05-02T12:15:24.450Z,14.60
2018-05-02T12:16:24.435Z,14.72
2018-05-02T12:17:24.440Z,14.62
2018-05-02T12:18:24.410Z,14.65
2018-05-02T12:19:24.394Z,14.69
2018-05-02T12:20:24.379Z,14.73
2018-05-02T12:21:24.365Z,14.64
2018-05-02T12:22:24.349Z,14.68
2018-05-02T12:23:24.339Z,14.65
2018-05-02T12:24:24.328Z,14.65
2018-05-02T12:25:24.317Z,14.64
2018-05-02T12:26:24.293Z,14.55
2018-05-02T12:27:24.280Z,14.58
2018-05-02T12:28:24.263Z,14.58
2018-05-02T12:29:24.251Z,14.69
2018-05-02T12:30:24.235Z,14.64
2018-05-02T12:31:24.221Z,14.65
2018-05-02T12:32:24.214Z,14.58
2018-05-02T12:33:24.193Z,14.68
2018-05-02T12:34:24.180Z,14.73
2018-05-02T12:35:24.237Z,14.70
2018-05-02T12:36:24.149Z,14.70
2018-05-02T12:37:24.135Z,14.73
2018-05-02T12:38:24.122Z,14.64
2018-05-02T12:39:24.110Z,14.65
2018-05-02T12:40:24.092Z,14.73
2018-05-02T12:41:24.079Z,14.75
2018-05-02T12:42:24.065Z,14.72
2018-05-02T12:43:24.048Z,14.73
2018-05-02T12:44:24.034Z,14.72
2018-05-02T12:45:24.022Z,14.83
2018-05-02T12:46:24.006Z,14.75
2018-05-02T12:47:23.991Z,14.84
2018-05-02T12:48:23.978Z,14.80
2018-05-02T12:49:23.964Z,14.88
2018-05-02T12:50:23.960Z,14.95
2018-05-02T12:51:23.933Z,14.92
2018-05-02T12:52:23.920Z,15.03
2018-05-02T12:53:23.906Z,15.09
2018-05-02T12:54:23.896Z,15.06
2018-05-02T12:55:23.877Z,15.17
2018-05-02T12:56:23.864Z,15.27
2018-05-02T12:57:23.849Z,15.21
2018-05-02T12:58:23.836Z,15.38
2018-05-02T12:59:23.819Z,15.36
2018-05-02T13:00:23.805Z,15.44
2018-05-02T13:01:23.794Z,15.43
2018-05-02T13:02:23.821Z,15.51
2018-05-02T13:03:23.764Z,15.44
2018-05-02T13:04:23.748Z,15.49